Flight Track Log - Related Links

Times and Time Zones

All times are in EDT time to prevent confusion due to time zone crossing. See the SWA1259 flight status page for this flight to view local times or setup timezone preferences in your user account.

Time Position Orientation Groundspeed Altitude Reporting Facility
EDT Latitude Longitude Course Direction KTS MPH feet Rate Location/Type
Tue 06:26:39 AM 39.9942 -82.9714 274° West 202 232 2,900  Level Indianapolis Center
Tue 06:26:55 AM 39.9947 -82.9814 274° West 204 235 3,500 3,055 Climbing Indianapolis Center
Tue 06:27:34 AM 39.9778 -83.0344 247° West 246 283 5,700 2,951 Climbing Indianapolis Center
Tue 06:27:56 AM 39.9619 -83.0367 186° South 241 277 6,500 2,341 Climbing Indianapolis Center
Tue 06:28:56 AM 39.9119 -82.9900 144° Southeast 254 292 8,900 2,430 Climbing Indianapolis Center
Tue 06:29:57 AM 39.9028 -82.8839 96° East 285 328 11,400 2,727 Climbing Indianapolis Center
Tue 06:30:57 AM 39.9067 -82.7581 88° East 341 392 14,400 3,074 Climbing Indianapolis Center
Tue 06:31:58 AM 39.9147 -82.6269 85° East 360 414 17,600 2,803 Climbing Indianapolis Center
Tue 06:32:59 AM 39.9242 -82.4883 85° East 379 436 20,100 2,727 Climbing Indianapolis Center
Tue 06:33:59 AM 39.9350 -82.3172 85° East 394 453 23,100 2,628 Climbing Indianapolis Center
Tue 06:35:00 AM 39.9436 -82.1656 86° East 419 482 25,400 2,231 Climbing Indianapolis Center
Tue 06:36:00 AM 39.9531 -82.0131 85° East 422 486 27,600 1,785 Climbing Indianapolis Center
Tue 06:37:01 AM 39.9617 -81.8583 86° East 429 494 29,000 689 Climbing Indianapolis Center
Tue 06:38:02 AM 39.9700 -81.7086 86° East 438 504 29,000  Level Indianapolis Center
Tue 06:39:02 AM 39.9797 -81.5453 86° East 447 514 29,000  Level Indianapolis Center
Tue 06:40:03 AM 39.9881 -81.3808 86° East 451 519 29,000  Level Indianapolis Center
Tue 06:41:04 AM 39.9972 -81.2133 86° East 457 526 29,000  Level Indianapolis Center
Tue 06:42:04 AM 40.0044 -81.0511 87° East 448 516 29,000  Level Indianapolis Center
Tue 06:43:05 AM 40.0125 -80.8922 86° East 441 507 29,000  Level Indianapolis Center
Tue 06:44:06 AM 40.0008 -80.7336 95° East 440 506 29,000  Level Indianapolis Center
Tue 06:45:07 AM 39.9678 -80.5761 105° East 447 514 29,000  Level Indianapolis Center
Tue 06:46:07 AM 39.9347 -80.4044 104° East 450 518 29,000  Level Indianapolis Center
Tue 06:47:08 AM 39.9022 -80.2450 105° East 453 521 29,000  Level Indianapolis Center
Tue 06:48:09 AM 39.8681 -80.0839 105° East 458 527 29,000  Level Indianapolis Center
Tue 06:49:10 AM 39.8350 -79.9225 105° East 459 528 29,000  Level Indianapolis Center
Tue 06:50:01 AM 39.8075 -79.7811 104° East 457 526 29,000  Level Washington Center
Tue 06:51:00 AM 39.7792 -79.6361 104° East 465 535 29,000  Level Washington Center
Tue 06:52:02 AM 39.7450 -79.4750 105° East 465 535 29,000 -298 Level Washington Center
Tue 06:53:01 AM 39.7125 -79.3167 105° East 460 529 28,400 -1,700 Descending Washington Center
Tue 06:54:02 AM 39.6758 -79.1478 106° East 460 529 25,600 -2,194 Descending Washington Center
Tue 06:54:34 AM 39.6597 -79.0839 108° East 441 507 25,000 -387 Descending Cleveland Center
Tue 06:55:35 AM 39.6236 -78.9217 106° East 435 501 25,000 -49 Level Cleveland Center
Tue 06:56:36 AM 39.5900 -78.7650 106° East 446 513 24,900 -1,073 Descending Cleveland Center
Tue 06:57:38 AM 39.5581 -78.6164 106° East 433 498 22,800 -2,250 Descending Cleveland Center
Tue 06:58:52 AM 39.5167 -78.4333 106° East 408 470 19,800 -2,344 Descending Potomac TRACON
Tue 06:59:46 AM 39.4833 -78.3000 108° East 390 449 17,800 -2,263 Descending Potomac TRACON
Tue 07:00:46 AM 39.4667 -78.1667 99° East 389 448 15,500 -1,461 Descending Potomac TRACON
Tue 07:01:41 AM 39.4333 -78.0500 110° East 382 440 15,000 -211 Descending Potomac TRACON
Tue 07:02:40 AM 39.4333 -77.9167 90° East 375 432 15,100 53 Climbing Potomac TRACON
Tue 07:03:35 AM 39.4333 -77.8000 90° East 375 432 15,100 -470 Level Potomac TRACON
Tue 07:04:35 AM 39.4333 -77.6667 90° East 372 428 14,200 -1,000 Descending Potomac TRACON
Tue 07:05:35 AM 39.4500 -77.5167 82° East 368 423 13,100 -1,450 Descending Potomac TRACON
Tue 07:06:35 AM 39.4500 -77.4000 90° East 357 411 11,300 -1,105 Descending Potomac TRACON
Tue 07:07:29 AM 39.4500 -77.2833 90° East 357 411 11,000 -444 Descending Potomac TRACON
Tue 07:08:23 AM 39.4667 -77.1667 79° East 351 404 10,500 -895 Descending Potomac TRACON
Tue 07:09:23 AM 39.4667 -77.0500 90° East 318 366 9,300 -1,350 Descending Potomac TRACON
Tue 07:10:23 AM 39.4667 -76.9500 90° East 301 346 7,800 -1,450 Descending Potomac TRACON
Tue 07:11:23 AM 39.4667 -76.8500 90° East 292 336 6,400 -1,421 Descending Potomac TRACON
Tue 07:12:17 AM 39.4500 -76.7500 102° East 274 315 5,100 -737 Descending Potomac TRACON
Tue 07:13:17 AM 39.4333 -76.6667 104° East 270 311 5,000 -211 Descending Potomac TRACON
Tue 07:14:11 AM 39.3833 -76.6000 134° Southeast 270 311 4,700 -737 Descending Potomac TRACON
Tue 07:15:11 AM 39.3167 -76.5500 150° Southeast 275 316 3,600 -895 Descending Potomac TRACON
Tue 07:16:05 AM 39.2667 -76.5167 153° Southeast 253 291 3,000 -316 Descending Potomac TRACON
Tue 07:17:05 AM 39.2000 -76.4833 159° South 244 281 3,000 -250 Level Potomac TRACON
Tue 07:18:05 AM 39.1333 -76.4667 169° South 228 262 2,500 -250 Descending Potomac TRACON
Tue 07:19:05 AM 39.0833 -76.4833 195° South 225 259 2,500  Level Potomac TRACON
Tue 07:20:05 AM 39.0500 -76.5500 237° Southwest 216 249 2,500 -50 Level Potomac TRACON
Tue 07:21:05 AM 39.0667 -76.5833 303° West 148 170 2,400 -368 Descending Potomac TRACON
Tue 07:21:59 AM 39.1000 -76.6000 339° North 129 148 1,800 -684 Descending Potomac TRACON
Tue 07:22:59 AM 39.1333 -76.6333 322° Northwest 118 136 1,100 -650 Descending Potomac TRACON
Tue 07:23:59 AM 39.1500 -76.6500 322° Northwest 118 136 500 -600 Descending Potomac TRACON

Login

Don't have an account? Register now (free) for customized features, flight alerts, and more!